Time;durP1;ratioP1;P1;durP2;ratioP2;P2;SDS_P1;SDS_P2;PMS_P1;PMS_P2;Temp;Humidity;BMP_temperature;BMP_pressure;BME280_temperature;BME280_humidity;BME280_pressure;Samples;Min_cycle;Max_cycle;Signal;HPM_P1;HPM_P2
2022/07/27 00:02:37;;;;;;;4.78;1.63;;;;;;;18.74;58.91;100290.25;5072601;28;20143;-63
2022/07/27 00:05:21;;;;;;;4.18;2.08;;;;;;;18.74;58.92;100294.59;5071733;28;20047;-59
2022/07/27 00:08:10;;;;;;;6.53;2.13;;;;;;;18.70;58.86;100291.16;5072959;28;20506;-62
2022/07/27 00:10:57;;;;;;;6.38;1.75;;;;;;;18.70;58.93;100286.75;5073283;28;20051;-62
2022/07/27 00:13:43;;;;;;;5.82;1.70;;;;;;;18.69;58.80;100290.28;5073270;28;20518;-61
2022/07/27 00:16:27;;;;;;;4.45;1.98;;;;;;;18.70;58.84;100285.91;5072846;28;20518;-60
2022/07/27 00:19:11;;;;;;;4.03;1.92;;;;;;;18.71;58.68;100287.66;5073171;28;20569;-62
2022/07/27 00:21:57;;;;;;;5.15;2.00;;;;;;;18.69;58.68;100298.16;5072030;28;20051;-61
2022/07/27 00:24:47;;;;;;;5.97;2.20;;;;;;;18.67;58.97;100292.09;5074330;28;20048;-61
2022/07/27 00:27:31;;;;;;;4.90;2.03;;;;;;;18.69;58.82;100290.28;5075863;28;20051;-62
2022/07/27 00:30:15;;;;;;;7.85;2.42;;;;;;;18.68;58.68;100290.31;5076579;28;20039;-61
2022/07/27 00:32:59;;;;;;;6.10;2.10;;;;;;;18.67;58.61;100285.94;5076354;28;20461;-62
2022/07/27 00:35:48;;;;;;;7.47;2.17;;;;;;;18.65;58.83;100285.09;5076558;28;20081;-61
2022/07/27 00:38:33;;;;;;;9.38;2.35;;;;;;;18.63;58.56;100281.63;5075717;28;20462;-62
2022/07/27 00:41:19;;;;;;;7.07;2.22;;;;;;;18.62;58.82;100282.50;5076478;28;20402;-62
2022/07/27 00:44:05;;;;;;;4.78;2.13;;;;;;;18.62;59.00;100282.50;5076493;28;20052;-61
2022/07/27 00:46:53;;;;;;;2.35;1.70;;;;;;;18.61;58.73;100279.03;5075232;28;20048;-61
2022/07/27 00:49:37;;;;;;;6.28;2.05;;;;;;;18.61;58.54;100278.19;5075622;28;20055;-61
2022/07/27 00:52:24;;;;;;;4.60;1.80;;;;;;;18.61;58.68;100279.03;5075309;28;20174;-61
2022/07/27 00:55:08;;;;;;;5.13;1.55;;;;;;;18.61;58.80;100283.44;5076015;28;20056;-62
2022/07/27 00:57:55;;;;;;;6.18;2.13;;;;;;;18.60;58.72;100279.06;5075363;28;20590;-61
2022/07/27 01:00:39;;;;;;;4.82;2.10;;;;;;;18.56;58.73;100272.97;5075144;28;20047;-60
2022/07/27 01:03:25;;;;;;;5.57;1.95;;;;;;;18.55;58.52;100277.34;5076386;28;20438;-61
2022/07/27 01:06:10;;;;;;;5.88;2.30;;;;;;;18.55;58.77;100277.34;5074940;28;20043;-60
2022/07/27 01:09:55;;;;;;;5.60;2.05;;;;;;;18.55;58.54;100281.72;5074884;28;20047;-61
2022/07/27 01:12:00;;;;;;;4.85;1.95;;;;;;;18.55;58.46;100273.84;5075776;28;20056;-61
2022/07/27 01:14:48;;;;;;;6.32;2.03;;;;;;;18.52;58.66;100277.41;5075601;28;20051;-61
2022/07/27 01:17:32;;;;;;;5.90;1.63;;;;;;;18.53;58.67;100273.03;5075003;28;20521;-60
2022/07/27 01:20:22;;;;;;;4.18;1.83;;;;;;;18.51;58.73;100275.66;5075853;28;20079;-60
2022/07/27 01:23:08;;;;;;;3.85;1.67;;;;;;;18.51;58.87;100269.56;5075442;28;20195;-61
2022/07/27 01:25:57;;;;;;;8.63;1.88;;;;;;;18.50;58.51;100270.44;5074735;28;20044;-62
2022/07/27 01:28:45;;;;;;;7.15;2.00;;;;;;;18.49;58.70;100276.56;5074657;28;20443;-60
2022/07/27 01:31:30;;;;;;;4.30;1.60;;;;;;;18.48;58.76;100286.19;5075559;28;20094;-60
2022/07/27 01:34:14;;;;;;;5.10;1.92;;;;;;;18.46;58.58;100271.34;5074540;28;20130;-60
2022/07/27 01:37:02;;;;;;;9.30;2.60;;;;;;;18.44;58.66;100284.50;5075537;28;20123;-60
2022/07/27 01:39:48;;;;;;;7.63;2.80;;;;;;;18.42;58.52;100279.25;5074562;28;20636;-60
2022/07/27 01:42:35;;;;;;;6.32;2.35;;;;;;;18.40;58.16;100275.78;5074298;28;20047;-62
2022/07/27 01:45:24;;;;;;;4.43;2.00;;;;;;;18.39;58.61;100284.53;5075320;28;20564;-61
2022/07/27 01:48:12;;;;;;;6.95;1.90;;;;;;;18.37;58.72;100282.84;5074044;28;20044;-61
2022/07/27 01:50:59;;;;;;;3.55;1.48;;;;;;;18.37;58.71;100274.97;5074206;28;20133;-61
2022/07/27 01:53:46;;;;;;;3.13;1.73;;;;;;;18.35;58.33;100281.97;5074944;28;20067;-62
2022/07/27 01:56:30;;;;;;;4.13;1.90;;;;;;;18.33;58.74;100274.16;5073984;28;20403;-62
2022/07/27 01:59:17;;;;;;;5.60;2.30;;;;;;;18.32;58.83;100272.41;5075189;28;20044;-60
2022/07/27 02:02:04;;;;;;;5.43;1.60;;;;;;;18.30;58.83;100270.66;5074455;28;20058;-60
2022/07/27 02:04:48;;;;;;;6.20;2.20;;;;;;;18.28;58.71;100278.56;5074668;28;20070;-61
2022/07/27 02:07:35;;;;;;;3.40;1.70;;;;;;;18.26;58.46;100277.72;5073923;28;20044;-62
2022/07/27 02:10:22;;;;;;;4.93;2.03;;;;;;;18.23;58.71;100276.00;5073829;28;20094;-60
2022/07/27 02:13:07;;;;;;;4.13;2.00;;;;;;;18.19;58.43;100279.53;5073594;28;20051;-61
2022/07/27 02:15:51;;;;;;;6.63;2.10;;;;;;;18.18;58.58;100283.06;5074801;28;20105;-62
2022/07/27 02:18:35;;;;;;;10.27;2.50;;;;;;;18.17;58.89;100285.72;5073619;28;20044;-62
2022/07/27 02:21:19;;;;;;;4.22;1.80;;;;;;;18.14;58.58;100276.09;5074142;28;20552;-61
2022/07/27 02:24:03;;;;;;;4.72;1.95;;;;;;;18.14;58.57;100275.25;5074392;28;20159;-60
2022/07/27 02:26:47;;;;;;;3.25;1.65;;;;;;;18.15;58.56;100274.34;5073508;28;20052;-60
2022/07/27 02:29:31;;;;;;;5.13;2.55;;;;;;;18.14;58.56;100273.47;5073392;28;20093;-60
2022/07/27 02:32:15;;;;;;;4.88;1.77;;;;;;;18.12;58.69;100280.53;5074386;28;20059;-60
2022/07/27 02:35:02;;;;;;;5.93;2.00;;;;;;;18.10;58.59;100279.66;5074430;28;20094;-62
2022/07/27 02:37:47;;;;;;;7.85;2.00;;;;;;;18.09;58.59;100270.06;5073679;28;20402;-62
2022/07/27 02:40:31;;;;;;;7.50;1.85;;;;;;;18.09;58.65;100264.81;5074008;28;20047;-61
2022/07/27 02:43:18;;;;;;;7.25;2.58;;;;;;;18.07;58.74;100263.97;5074225;28;20125;-61
2022/07/27 02:46:05;;;;;;;5.05;1.77;;;;;;;18.05;58.70;100273.59;5073144;28;20043;-62
2022/07/27 02:48:55;;;;;;;2.67;1.80;;;;;;;18.03;58.45;100276.25;5073225;28;20052;-61
2022/07/27 02:51:39;;;;;;;4.40;2.00;;;;;;;18.01;58.69;100269.25;5073906;28;20081;-60
2022/07/27 02:54:24;;;;;;;7.25;2.17;;;;;;;17.98;58.59;100275.41;5073166;28;20499;-60
2022/07/27 02:57:11;;;;;;;6.75;2.03;;;;;;;17.94;58.66;100268.44;5073244;28;20399;-60
2022/07/27 02:59:55;;;;;;;4.03;1.60;;;;;;;17.93;58.65;100267.56;5073056;28;20402;-61
2022/07/27 03:02:42;;;;;;;4.18;2.17;;;;;;;17.92;58.82;100268.47;5073299;28;20462;-60
2022/07/27 03:05:28;;;;;;;4.38;2.00;;;;;;;17.92;58.59;100278.94;5073564;28;20563;-60
2022/07/27 03:08:12;;;;;;;14.68;2.20;;;;;;;17.92;58.75;100278.06;5073061;28;20051;-60
2022/07/27 03:10:56;;;;;;;4.13;1.77;;;;;;;17.91;58.61;100281.56;5073855;28;20055;-60
2022/07/27 03:13:42;;;;;;;6.80;2.30;;;;;;;17.89;58.46;100278.97;5073273;28;20106;-61
2022/07/27 03:16:26;;;;;;;3.60;2.15;;;;;;;17.88;58.79;100276.38;5072744;28;20136;-60
2022/07/27 03:19:11;;;;;;;9.52;2.35;;;;;;;17.86;58.69;100276.38;5073511;28;20136;-61
2022/07/27 03:21:55;;;;;;;6.75;2.10;;;;;;;17.84;58.60;100277.28;5072385;28;20086;-60
2022/07/27 03:24:39;;;;;;;4.78;2.10;;;;;;;17.81;58.62;100283.44;5073747;28;20055;-60
2022/07/27 03:27:23;;;;;;;5.38;1.88;;;;;;;17.79;58.55;100275.56;5073506;28;20186;-60
2022/07/27 03:30:10;;;;;;;7.53;2.42;;;;;;;17.76;58.70;100277.38;5073520;28;20051;-60
2022/07/27 03:33:00;;;;;;;4.13;1.95;;;;;;;17.74;58.38;100277.38;5073298;28;20128;-60
2022/07/27 03:35:47;;;;;;;4.45;2.10;;;;;;;17.72;58.68;100279.16;5072506;28;20047;-61
2022/07/27 03:38:31;;;;;;;4.75;2.10;;;;;;;17.70;58.50;100293.13;5073160;28;20052;-60
2022/07/27 03:41:15;;;;;;;5.28;1.95;;;;;;;17.68;58.48;100279.16;5073033;28;20051;-61
2022/07/27 03:43:58;;;;;;;4.13;2.10;;;;;;;17.66;58.37;100287.06;5073205;28;20395;-60
2022/07/27 03:46:48;;;;;;;7.72;2.42;;;;;;;17.64;58.23;100288.81;5072615;28;20055;-60
2022/07/27 03:49:32;;;;;;;5.90;2.20;;;;;;;17.63;58.55;100290.59;5073357;28;20063;-60
2022/07/27 03:52:16;;;;;;;7.53;2.80;;;;;;;17.62;58.48;100295.81;5073159;28;20051;-60
2022/07/27 03:55:02;;;;;;;4.93;1.90;;;;;;;17.59;58.87;100294.13;5073423;28;20525;-60
2022/07/27 03:57:52;;;;;;;5.53;2.00;;;;;;;17.59;58.41;100301.13;5074059;28;20139;-60
2022/07/27 04:01:26;;;;;;;5.15;2.10;;;;;;;17.56;58.58;100296.75;5173708;27;20126;-60
2022/07/27 04:04:10;;;;;;;4.80;2.10;;;;;;;17.55;58.61;100297.63;5152507;27;20045;-60
2022/07/27 04:06:54;;;;;;;3.83;1.90;;;;;;;17.53;58.56;100298.53;5136869;27;20058;-60
2022/07/27 04:09:43;;;;;;;4.82;2.22;;;;;;;17.49;58.78;100297.72;5137414;27;20187;-60
2022/07/27 04:12:27;;;;;;;6.63;2.17;;;;;;;17.49;58.58;100298.56;5152659;27;20072;-59
2022/07/27 04:15:15;;;;;;;8.18;2.45;;;;;;;17.47;58.68;100300.31;5152529;27;20413;-62
2022/07/27 04:17:59;;;;;;;4.70;2.30;;;;;;;17.46;58.69;100300.34;5137508;27;20409;-61
2022/07/27 04:20:43;;;;;;;5.78;2.13;;;;;;;17.44;58.66;100305.59;5152217;27;20095;-61
2022/07/27 04:23:31;;;;;;;5.53;1.92;;;;;;;17.42;58.55;100301.25;5152403;27;20050;-61
2022/07/27 04:26:18;;;;;;;3.45;1.90;;;;;;;17.42;58.56;100307.38;5136813;27;20077;-62
2022/07/27 04:29:05;;;;;;;3.70;1.77;;;;;;;17.41;58.53;100304.75;5152459;27;20099;-62
2022/07/27 04:31:55;;;;;;;6.15;1.95;;;;;;;17.39;58.60;100307.38;5136747;27;20123;-62
2022/07/27 04:34:41;;;;;;;5.57;2.53;;;;;;;17.38;58.67;100305.66;5152029;27;20183;-60
2022/07/27 04:37:25;;;;;;;9.85;2.50;;;;;;;17.38;58.63;100307.38;5136652;27;20045;-60
2022/07/27 04:40:12;;;;;;;3.95;2.10;;;;;;;17.38;58.54;100305.66;5151709;27;20126;-62
2022/07/27 04:42:57;;;;;;;5.80;2.30;;;;;;;17.37;58.47;100309.16;5136471;27;20102;-62
2022/07/27 04:45:41;;;;;;;7.88;2.20;;;;;;;17.40;58.75;100305.63;5136762;27;20076;-61
2022/07/27 04:48:25;;;;;;;7.28;1.63;;;;;;;17.38;58.62;100304.75;5151843;27;20601;-62
2022/07/27 04:51:12;;;;;;;7.32;2.38;;;;;;;17.37;58.81;100306.53;5136360;27;20452;-59
2022/07/27 04:53:56;;;;;;;4.28;1.70;;;;;;;17.36;58.84;100312.66;5151717;27;20153;-60
2022/07/27 04:56:40;;;;;;;9.10;2.08;;;;;;;17.37;58.83;100314.38;5151411;27;20483;-60
2022/07/27 04:59:24;;;;;;;4.30;1.80;;;;;;;17.37;58.61;100323.97;5151329;27;20062;-61
2022/07/27 05:02:08;;;;;;;6.18;2.05;;;;;;;17.36;58.84;100328.38;5135437;27;20045;-62
2022/07/27 05:04:53;;;;;;;5.00;2.35;;;;;;;17.35;58.72;100324.00;5151464;27;20131;-61
2022/07/27 05:07:37;;;;;;;5.32;2.05;;;;;;;17.35;58.83;100319.66;5151362;27;20050;-61
2022/07/27 05:10:21;;;;;;;3.58;1.77;;;;;;;17.34;58.96;100323.16;5151597;27;20515;-61
2022/07/27 05:13:07;;;;;;;4.80;2.10;;;;;;;17.36;58.99;100328.38;5122011;27;20050;-60
2022/07/27 05:15:52;;;;;;;3.97;2.20;;;;;;;17.37;59.03;100330.09;5137636;27;20091;-61
2022/07/27 05:18:37;;;;;;;6.22;2.47;;;;;;;17.39;59.01;100332.69;5137629;27;20089;-62
2022/07/27 05:21:21;;;;;;;8.40;2.25;;;;;;;17.39;59.02;100333.59;5121362;27;20037;-61
2022/07/27 05:24:08;;;;;;;10.07;2.60;;;;;;;17.39;59.07;100337.94;5137321;27;20459;-62
2022/07/27 05:26:52;;;;;;;2.85;2.08;;;;;;;17.42;59.06;100332.69;5121819;27;20055;-61
2022/07/27 05:29:37;;;;;;;5.13;2.35;;;;;;;17.42;58.99;100332.69;5121929;27;20054;-61
2022/07/27 05:32:21;;;;;;;9.20;2.60;;;;;;;17.42;59.09;100330.94;5121855;27;20046;-61
2022/07/27 05:35:06;;;;;;;3.08;2.00;;;;;;;17.42;59.06;100330.94;5137281;27;20183;-62
2022/07/27 05:37:50;;;;;;;6.15;2.00;;;;;;;17.45;59.26;100335.28;5121742;27;20050;-62
2022/07/27 05:40:34;;;;;;;6.47;2.38;;;;;;;17.45;59.26;100335.28;5121385;27;20406;-61
2022/07/27 05:43:18;;;;;;;5.90;2.20;;;;;;;17.46;59.26;100345.75;5121572;27;20045;-60
2022/07/27 05:46:02;;;;;;;6.00;2.65;;;;;;;17.47;59.14;100344.00;5136686;27;20065;-61
2022/07/27 05:48:45;;;;;;;9.13;2.20;;;;;;;17.47;59.22;100341.38;5137108;27;20070;-61
2022/07/27 05:51:30;;;;;;;4.80;2.15;;;;;;;17.48;59.35;100351.84;5121037;27;20049;-60
2022/07/27 05:54:14;;;;;;;5.15;2.20;;;;;;;17.52;59.11;100344.81;5120945;27;20512;-60
2022/07/27 05:56:58;;;;;;;7.65;1.90;;;;;;;17.52;59.19;100350.06;5136699;27;20049;-61
2022/07/27 05:59:42;;;;;;;3.40;1.95;;;;;;;17.53;59.58;100348.31;5136454;27;20139;-60
2022/07/27 06:02:28;;;;;;;4.20;2.15;;;;;;;17.53;59.21;100353.56;5121146;27;20091;-61
2022/07/27 06:05:13;;;;;;;8.95;2.33;;;;;;;17.54;59.18;100350.06;5121388;27;20074;-60
2022/07/27 06:08:07;;;;;;;5.43;1.75;;;;;;;17.53;58.99;100357.03;5136525;27;20401;-61
2022/07/27 06:10:51;;;;;;;4.93;1.45;;;;;;;17.52;58.99;100357.91;5120990;27;20448;-60
2022/07/27 06:13:35;;;;;;;3.40;2.13;;;;;;;17.53;59.14;100356.19;5136667;27;20397;-60
2022/07/27 06:16:19;;;;;;;5.65;1.88;;;;;;;17.55;58.94;100355.28;5136323;27;20582;-60
2022/07/27 06:19:04;;;;;;;5.07;1.77;;;;;;;17.55;58.98;100355.28;5136355;27;20135;-61
2022/07/27 06:21:48;;;;;;;3.90;1.67;;;;;;;17.59;59.14;100361.41;5120709;27;20458;-61
2022/07/27 06:24:33;;;;;;;3.63;1.77;;;;;;;17.58;59.14;100357.03;5135435;27;20134;-60
2022/07/27 06:27:17;;;;;;;7.10;2.38;;;;;;;17.58;59.01;100359.66;5120799;27;20045;-62
2022/07/27 06:30:03;;;;;;;3.80;1.85;;;;;;;17.60;59.20;100357.84;5135856;27;20073;-62
2022/07/27 06:32:47;;;;;;;6.13;1.83;;;;;;;17.62;59.10;100354.38;5120805;27;20053;-62
2022/07/27 06:35:31;;;;;;;9.88;2.05;;;;;;;17.61;58.88;100363.09;5135899;27;20516;-62
2022/07/27 06:38:17;;;;;;;;;;;;;;;17.59;58.94;100354.38;5136591;27;20555;-62
2022/07/27 06:41:01;;;;;;;4.60;1.88;;;;;;;17.60;59.38;100361.38;5120419;27;19922;-62
2022/07/27 06:43:45;;;;;;;3.35;1.70;;;;;;;17.62;58.95;100363.97;5135914;27;20058;-61
2022/07/27 06:46:29;;;;;;;4.35;1.80;;;;;;;17.61;58.95;100363.09;5136425;27;20049;-61
2022/07/27 06:49:14;;;;;;;3.97;1.83;;;;;;;17.61;59.00;100351.75;5120268;27;20096;-61
2022/07/27 06:51:58;;;;;;;4.80;2.03;;;;;;;17.62;58.85;100362.22;5135740;27;20216;-61
2022/07/27 06:54:44;;;;;;;3.30;1.50;;;;;;;17.62;58.58;100359.59;5119880;27;20049;-62
2022/07/27 06:57:28;;;;;;;3.03;1.75;;;;;;;17.65;59.00;100363.94;5135543;27;20582;-61
2022/07/27 07:00:13;;;;;;;5.13;2.10;;;;;;;17.68;58.92;100365.66;5135250;27;20492;-61
2022/07/27 07:03:04;;;;;;;5.35;2.17;;;;;;;17.67;58.92;100370.03;5135550;27;20050;-62
2022/07/27 07:05:51;;;;;;;4.45;1.92;;;;;;;17.68;58.71;100363.03;5119999;27;20425;-61
2022/07/27 07:08:35;;;;;;;4.72;1.90;;;;;;;17.68;58.71;100361.31;5135152;27;20402;-60
2022/07/27 07:11:20;;;;;;;4.40;2.00;;;;;;;17.69;58.58;100356.91;5135439;27;20092;-60
2022/07/27 07:14:04;;;;;;;3.10;1.38;;;;;;;17.69;58.90;100372.66;5135245;27;20061;-61
2022/07/27 07:16:48;;;;;;;6.45;1.67;;;;;;;17.71;58.68;100370.88;5135055;27;20046;-60
2022/07/27 07:19:32;;;;;;;6.93;1.45;;;;;;;17.70;58.63;100372.66;5135181;27;20050;-62
2022/07/27 07:22:17;;;;;;;5.93;1.70;;;;;;;17.72;58.66;100372.63;5135105;27;20046;-60
2022/07/27 07:25:01;;;;;;;4.53;1.70;;;;;;;17.70;58.29;100369.16;5134870;27;20096;-62
2022/07/27 07:27:46;;;;;;;4.72;1.67;;;;;;;17.71;58.33;100370.88;5119674;27;20085;-61
2022/07/27 07:30:31;;;;;;;5.20;1.67;;;;;;;17.70;58.44;100370.03;5134941;27;20566;-60
2022/07/27 07:33:15;;;;;;;6.10;1.95;;;;;;;17.67;58.43;100370.03;5119616;27;20081;-62
2022/07/27 07:35:59;;;;;;;4.78;1.98;;;;;;;17.70;58.32;100370.03;5134729;27;20091;-62
2022/07/27 07:38:43;;;;;;;3.08;1.50;;;;;;;17.71;58.34;100373.50;5134735;27;20054;-62
2022/07/27 07:41:27;;;;;;;2.72;1.75;;;;;;;17.70;58.12;100371.75;5134362;27;20042;-60
2022/07/27 07:44:11;;;;;;;4.68;1.70;;;;;;;17.73;58.25;100366.50;5119397;27;20095;-60
2022/07/27 07:46:58;;;;;;;3.33;1.40;;;;;;;17.71;58.23;100366.53;5134602;27;20111;-60
2022/07/27 07:49:42;;;;;;;3.03;1.50;;;;;;;17.72;57.96;100363.03;5134912;27;20046;-61
2022/07/27 07:52:28;;;;;;;3.00;1.50;;;;;;;17.73;57.89;100374.38;5134805;27;20050;-61
2022/07/27 07:55:18;;;;;;;2.63;1.90;;;;;;;17.74;57.74;100370.88;5134744;27;20096;-61
2022/07/27 07:58:02;;;;;;;6.53;1.40;;;;;;;17.73;57.80;100370.00;5134464;28;20104;-62
2022/07/27 08:00:47;;;;;;;4.85;1.40;;;;;;;17.73;57.97;100366.50;5134217;28;20171;-61
2022/07/27 08:03:31;;;;;;;5.90;1.42;;;;;;;17.75;57.81;100362.13;5119094;28;20179;-61
2022/07/27 08:06:15;;;;;;;4.93;1.42;;;;;;;17.75;57.82;100357.72;5134668;28;20103;-61
2022/07/27 08:08:59;;;;;;;6.18;1.83;;;;;;;17.76;57.58;100367.34;5118951;28;20050;-61
2022/07/27 08:11:43;;;;;;;5.07;1.42;;;;;;;17.74;57.29;100365.63;5134661;28;20120;-61
2022/07/27 08:14:30;;;;;;;3.42;1.50;;;;;;;17.76;57.70;100367.34;5119132;28;20078;-61
2022/07/27 08:17:15;;;;;;;5.57;1.63;;;;;;;17.77;57.66;100376.09;5118985;28;20443;-61
2022/07/27 08:20:01;;;;;;;4.65;1.60;;;;;;;17.76;57.35;100371.72;5118973;28;20045;-61
2022/07/27 08:22:45;;;;;;;2.92;1.20;;;;;;;17.76;57.37;100377.81;5134105;28;20147;-62
2022/07/27 08:25:31;;;;;;;2.65;1.48;;;;;;;17.75;57.15;100385.72;5118897;28;20078;-60
2022/07/27 08:28:16;;;;;;;5.05;1.38;;;;;;;17.75;57.13;100393.56;5134514;28;20143;-60
2022/07/27 08:31:00;;;;;;;5.43;1.95;;;;;;;17.73;57.24;100392.72;5134046;28;20096;-60
2022/07/27 08:33:44;;;;;;;2.97;1.45;;;;;;;17.72;57.20;100383.09;5134336;28;20133;-60
2022/07/27 08:36:28;;;;;;;6.22;1.63;;;;;;;17.75;57.27;100383.09;5119042;28;20080;-60
2022/07/27 08:39:12;;;;;;;5.35;1.73;;;;;;;17.76;57.47;100390.94;5134292;28;20061;-61
2022/07/27 08:42:03;;;;;;;13.43;2.17;;;;;;;17.79;57.40;100385.66;5134181;28;20116;-60
2022/07/27 08:44:53;;;;;;;13.18;1.60;;;;;;;17.82;57.34;100384.78;5134293;28;20451;-60
2022/07/27 08:48:17;;;;;;;10.27;2.13;;;;;;;17.83;57.16;100383.88;5152859;27;20142;-60
2022/07/27 08:51:01;;;;;;;5.32;1.30;;;;;;;17.85;57.07;100379.50;5132213;28;20054;-61
2022/07/27 08:53:46;;;;;;;3.17;1.30;;;;;;;17.88;56.78;100379.47;5132104;28;20119;-61
2022/07/27 08:56:30;;;;;;;4.43;1.17;;;;;;;17.88;56.94;100382.09;5131885;28;20047;-61
2022/07/27 08:59:14;;;;;;;8.60;1.63;;;;;;;17.87;56.84;100384.75;5131793;28;20517;-62
2022/07/27 09:01:58;;;;;;;5.35;1.42;;;;;;;17.87;56.72;100382.97;5131794;28;20509;-62
2022/07/27 09:04:42;;;;;;;1.60;1.48;;;;;;;17.89;56.70;100383.84;5131727;28;20084;-62
2022/07/27 09:07:28;;;;;;;3.38;1.33;;;;;;;17.87;56.31;100396.09;5131324;28;20142;-62
2022/07/27 09:10:29;;;;;;;5.07;1.83;;;;;;;17.88;56.46;100396.97;5116309;28;20081;-62
2022/07/27 09:13:22;;;;;;;2.90;1.48;;;;;;;17.83;56.20;100388.28;5116248;28;20128;-62
2022/07/27 09:16:09;;;;;;;2.45;1.35;;;;;;;17.87;56.70;100388.22;5116194;28;20444;-62
2022/07/27 09:18:59;;;;;;;3.33;1.45;;;;;;;17.88;56.75;100386.50;5116091;28;20119;-62
2022/07/27 09:21:44;;;;;;;1.95;1.17;;;;;;;17.92;56.86;100386.44;5115776;28;20046;-62
2022/07/27 09:24:33;;;;;;;3.55;1.38;;;;;;;17.94;56.59;100392.53;5131388;28;20122;-61
2022/07/27 09:27:29;;;;;;;4.65;1.98;;;;;;;17.94;56.45;100389.03;5115688;27;20042;-62
2022/07/27 09:30:17;;;;;;;2.47;1.58;;;;;;;17.94;56.51;100389.91;5131246;27;20054;-62
2022/07/27 09:33:05;;;;;;;3.10;1.60;;;;;;;17.95;56.69;100378.56;5116200;28;20062;-62
2022/07/27 09:35:58;;;;;;;2.90;1.45;;;;;;;17.98;56.74;100387.31;5115363;28;20054;-62
2022/07/27 09:39:04;;;;;;;3.85;1.45;;;;;;;17.98;56.61;100375.06;5130993;28;20516;-62
2022/07/27 09:41:49;;;;;;;3.15;1.58;;;;;;;18.00;56.58;100389.03;5131179;28;20050;-62
2022/07/27 09:44:36;;;;;;;1.63;1.45;;;;;;;18.02;56.54;100381.13;5116006;28;20054;-62
2022/07/27 09:47:28;;;;;;;3.72;1.85;;;;;;;18.02;56.31;100382.03;5096325;28;20062;-62
2022/07/27 09:50:22;;;;;;;2.55;1.55;;;;;;;18.04;56.21;100382.00;5088828;28;20564;-62
2022/07/27 09:53:21;;;;;;;2.60;1.40;;;;;;;18.04;56.31;100372.38;5090015;28;20095;-62
2022/07/27 09:56:08;;;;;;;5.32;1.50;;;;;;;18.06;56.19;100383.72;5090039;28;20055;-62
2022/07/27 09:58:55;;;;;;;1.77;1.08;;;;;;;18.10;56.34;100376.69;5079945;28;20093;-62
2022/07/27 10:01:39;;;;;;;4.53;1.90;;;;;;;18.13;56.39;100379.31;5075484;28;20050;-63
2022/07/27 10:04:24;;;;;;;2.20;1.13;;;;;;;18.13;56.25;100375.78;5075388;28;20058;-62
2022/07/27 10:07:09;;;;;;;2.97;1.48;;;;;;;18.10;56.41;100377.56;5075198;28;20576;-62
2022/07/27 10:09:55;;;;;;;4.03;1.50;;;;;;;18.09;56.30;100388.06;5075508;28;20063;-62
2022/07/27 10:12:43;;;;;;;3.25;1.50;;;;;;;18.07;55.83;100387.22;5075368;28;20051;-62
2022/07/27 10:15:27;;;;;;;2.75;1.52;;;;;;;18.06;56.04;100383.72;5074937;28;20079;-62
2022/07/27 10:18:18;;;;;;;2.25;1.40;;;;;;;18.06;56.06;100385.47;5076244;28;20083;-62
2022/07/27 10:21:10;;;;;;;3.80;1.50;;;;;;;18.05;55.92;100381.09;5074765;28;20055;-62
2022/07/27 10:23:58;;;;;;;3.28;1.45;;;;;;;18.03;56.09;100378.50;5076351;28;20047;-62
2022/07/27 10:26:42;;;;;;;2.33;1.10;;;;;;;18.02;56.04;100375.88;5075073;28;20124;-62
2022/07/27 10:29:26;;;;;;;4.15;1.13;;;;;;;18.02;55.76;100373.25;5075955;28;20098;-62
2022/07/27 10:32:09;;;;;;;2.42;1.35;;;;;;;18.00;56.03;100378.53;5075869;28;20100;-62
2022/07/27 10:34:54;;;;;;;3.40;1.50;;;;;;;18.00;55.96;100372.41;5074660;28;20083;-62
2022/07/27 10:37:38;;;;;;;4.97;1.60;;;;;;;18.00;55.80;100365.44;5075763;28;20404;-60
2022/07/27 10:40:34;;;;;;;3.83;1.58;;;;;;;18.01;55.89;100358.41;5074761;28;20044;-60
2022/07/27 10:43:20;;;;;;;5.63;1.83;;;;;;;18.04;55.53;100355.75;5074573;28;20052;-62
2022/07/27 10:46:04;;;;;;;2.30;1.60;;;;;;;18.05;55.86;100355.78;5078462;28;20051;-62
2022/07/27 10:49:13;;;;;;;1.45;1.25;;;;;;;18.07;55.66;100355.75;5100737;28;20082;-62
2022/07/27 10:51:58;;;;;;;2.80;1.75;;;;;;;18.10;55.44;100359.19;5100798;28;20050;-62
2022/07/27 10:54:43;;;;;;;3.70;1.50;;;;;;;18.12;55.32;100353.97;5100675;28;20054;-62
2022/07/27 10:57:27;;;;;;;2.67;1.55;;;;;;;18.11;55.67;100349.59;5100483;28;20062;-62
2022/07/27 11:00:12;;;;;;;2.83;1.27;;;;;;;18.11;55.62;100353.06;5115747;28;20513;-62
2022/07/27 11:02:56;;;;;;;2.25;1.23;;;;;;;18.09;55.54;100352.22;5115651;28;20059;-62
2022/07/27 11:06:12;;;;;;;1.23;1.13;;;;;;;18.08;55.44;100344.38;5116349;28;20058;-62
2022/07/27 11:09:01;;;;;;;2.50;1.30;;;;;;;18.11;55.61;100344.34;5111722;28;20131;-62
2022/07/27 11:11:47;;;;;;;3.38;1.80;;;;;;;18.13;55.43;100341.69;5099793;28;20050;-62
2022/07/27 11:14:48;;;;;;;1.30;1.20;;;;;;;18.14;55.15;100346.06;5100160;28;20135;-62
2022/07/27 11:17:48;;;;;;;2.25;1.50;;;;;;;18.14;55.11;100336.41;5100303;28;20055;-62
2022/07/27 11:20:32;;;;;;;3.22;1.38;;;;;;;18.12;54.93;100330.34;5115615;28;20080;-62
2022/07/27 11:23:20;;;;;;;4.07;1.88;;;;;;;18.13;55.28;100334.72;5115221;28;20078;-61
2022/07/27 11:26:05;;;;;;;1.33;1.23;;;;;;;18.11;55.26;100332.09;5099996;28;20510;-62
2022/07/27 11:28:52;;;;;;;4.45;1.50;;;;;;;18.14;55.19;100323.31;5099850;28;20046;-62
2022/07/27 11:31:37;;;;;;;1.38;1.20;;;;;;;18.14;54.92;100322.44;5099628;28;20089;-62
2022/07/27 11:34:30;;;;;;;1.73;1.40;;;;;;;18.15;54.65;100325.03;5115311;28;20046;-61
2022/07/27 11:37:18;;;;;;;2.58;1.35;;;;;;;18.18;54.79;100311.91;5099913;28;20046;-61
2022/07/27 11:40:03;;;;;;;7.30;1.90;;;;;;;18.21;54.84;100318.88;5115129;28;20099;-60
2022/07/27 11:42:49;;;;;;;1.60;1.40;;;;;;;18.24;54.98;100324.06;5115157;28;20058;-61
2022/07/27 11:45:38;;;;;;;2.45;1.45;;;;;;;18.27;54.89;100326.66;5114715;28;20513;-61
2022/07/27 11:48:22;;;;;;;1.65;1.42;;;;;;;18.30;54.91;100334.50;5099873;28;20085;-62
2022/07/27 11:51:06;;;;;;;2.00;1.27;;;;;;;18.31;54.64;100330.13;5114751;28;20134;-62
2022/07/27 11:54:03;;;;;;;3.47;1.65;;;;;;;18.31;54.74;100333.63;5114554;28;20062;-62
2022/07/27 11:56:59;;;;;;;3.35;1.40;;;;;;;18.33;54.58;100344.97;5114824;28;20504;-62
2022/07/27 11:59:44;;;;;;;3.33;1.25;;;;;;;18.36;54.56;100342.34;5114825;28;20051;-63
2022/07/27 12:02:33;;;;;;;2.72;1.30;;;;;;;18.35;54.64;100339.69;5099258;28;20054;-62
2022/07/27 12:05:17;;;;;;;5.40;1.40;;;;;;;18.35;54.43;100344.94;5099327;28;20104;-61
2022/07/27 12:08:01;;;;;;;2.47;1.75;;;;;;;18.34;54.57;100333.59;5114406;28;20080;-61
2022/07/27 12:10:59;;;;;;;4.15;1.55;;;;;;;18.35;53.90;100342.31;5114118;28;20042;-61
2022/07/27 12:13:46;;;;;;;2.47;1.40;;;;;;;18.37;54.81;100336.16;5099172;28;20096;-61
2022/07/27 12:16:32;;;;;;;1.58;1.40;;;;;;;18.37;54.26;100332.69;5114558;28;20111;-61
2022/07/27 12:19:28;;;;;;;4.07;1.60;;;;;;;18.37;54.48;100333.53;5098934;28;20087;-61
2022/07/27 12:22:12;;;;;;;4.10;1.38;;;;;;;18.39;54.52;100338.78;5098960;28;20092;-62
2022/07/27 12:24:57;;;;;;;2.08;1.55;;;;;;;18.38;54.76;100330.03;5099060;28;20047;-62
2022/07/27 12:28:05;;;;;;;5.13;1.40;;;;;;;18.39;54.24;100328.28;5114006;28;20050;-62
2022/07/27 12:30:50;;;;;;;2.42;1.30;;;;;;;18.36;54.21;100339.72;5114086;28;20042;-62
2022/07/27 12:33:36;;;;;;;2.80;1.27;;;;;;;18.35;54.16;100335.34;5114368;28;20100;-62
2022/07/27 12:36:25;;;;;;;1.67;1.33;;;;;;;18.36;54.00;100333.56;5098790;28;20047;-63
2022/07/27 12:39:43;;;;;;;1.90;1.50;;;;;;;18.33;54.08;100323.09;5098865;28;20086;-62
2022/07/27 12:42:33;;;;;;;1.70;1.20;;;;;;;18.32;53.97;100324.00;5107482;28;20096;-62
2022/07/27 12:45:19;;;;;;;2.00;1.30;;;;;;;18.31;54.00;100322.25;5098893;28;20050;-62
2022/07/27 12:48:09;;;;;;;5.47;2.05;;;;;;;18.32;53.87;100309.13;5098211;28;20055;-62
2022/07/27 12:51:01;;;;;;;3.92;1.30;;;;;;;18.32;54.01;100310.88;5098663;28;20047;-62
2022/07/27 12:53:46;;;;;;;1.90;1.42;;;;;;;18.32;53.69;100306.50;5098774;28;20051;-61
2022/07/27 12:56:30;;;;;;;2.20;1.58;;;;;;;18.32;54.08;100292.50;5114135;28;20085;-61